createdAt,value
2022-09-23T00:03:26.170Z,0.7
2022-09-23T00:05:03.821Z,1.1
2022-09-23T00:10:04.512Z,0.9
2022-09-23T00:15:05.130Z,1.3
2022-09-23T00:20:05.851Z,1.1
2022-09-23T00:25:06.725Z,1.0
2022-09-23T00:30:07.134Z,0.8
2022-09-23T00:35:07.753Z,0.9
2022-09-23T00:40:08.458Z,1.0
2022-09-23T00:45:09.081Z,1.0
2022-09-23T00:50:09.663Z,1.2
2022-09-23T00:55:10.251Z,1.2
2022-09-23T01:00:10.838Z,1.4
2022-09-23T01:05:11.482Z,1.1
2022-09-23T01:10:12.162Z,1.2
2022-09-23T01:15:12.782Z,1.3
2022-09-23T01:20:13.329Z,1.3
2022-09-23T01:25:14.042Z,1.1
2022-09-23T01:30:14.589Z,0.9
2022-09-23T01:35:15.262Z,0.9
2022-09-23T01:40:15.979Z,1.3
2022-09-23T01:45:16.523Z,0.8
2022-09-23T01:50:17.162Z,1.0
2022-09-23T01:55:18.112Z,1.0
2022-09-23T02:00:18.500Z,1.1
2022-09-23T02:05:19.193Z,1.2
2022-09-23T02:10:21.765Z,1.7
2022-09-23T02:15:20.420Z,1.2
2022-09-23T02:20:21.087Z,0.8
2022-09-23T02:25:21.611Z,1.1
2022-09-23T02:30:22.254Z,1.1
2022-09-23T02:35:22.872Z,1.3
2022-09-23T02:40:23.886Z,1.1
2022-09-23T02:45:24.262Z,1.5
2022-09-23T02:50:24.932Z,1.0
2022-09-23T02:55:25.651Z,1.1
2022-09-23T03:00:26.793Z,0.9
2022-09-23T03:05:26.963Z,0.8
2022-09-23T03:10:27.625Z,1.1
2022-09-23T03:15:28.255Z,1.1
2022-09-23T03:20:28.943Z,0.9
2022-09-23T03:25:29.589Z,0.8
2022-09-23T03:30:30.361Z,1.3
2022-09-23T03:35:30.908Z,1.0
2022-09-23T03:40:31.680Z,0.7
2022-09-23T03:45:32.402Z,0.6
2022-09-23T03:50:32.877Z,0.6
2022-09-23T03:55:33.582Z,0.8
2022-09-23T04:00:34.822Z,0.8
2022-09-23T04:05:34.897Z,0.8
2022-09-23T04:10:35.645Z,1.3
2022-09-23T04:15:36.670Z,1.4
2022-09-23T04:20:36.924Z,1.0
2022-09-23T04:25:37.604Z,1.2
2022-09-23T04:30:38.363Z,0.9
2022-09-23T04:35:40.369Z,1.4
2022-09-23T04:40:39.661Z,0.9
2022-09-23T04:45:40.294Z,1.2
2022-09-23T04:50:40.892Z,1.2
2022-09-23T04:55:41.544Z,0.9
2022-09-23T05:00:42.531Z,1.3
2022-09-23T05:05:42.826Z,1.1
2022-09-23T05:10:43.454Z,1.0
2022-09-23T05:15:45.133Z,1.2
2022-09-23T05:20:44.771Z,1.4
2022-09-23T05:25:45.489Z,0.9
2022-09-23T05:30:46.200Z,0.9
2022-09-23T05:35:47.952Z,1.3
2022-09-23T05:40:47.473Z,1.2
2022-09-23T05:45:48.094Z,1.1
2022-09-23T05:50:48.690Z,1.1
2022-09-23T05:55:49.398Z,1.3
2022-09-23T06:00:52.372Z,0.9
2022-09-23T06:05:50.692Z,0.9
2022-09-23T06:10:54.437Z,0.7
2022-09-23T06:15:52.838Z,0.7
2022-09-23T06:20:52.638Z,0.8
2022-09-23T06:25:53.329Z,0.7
2022-09-23T06:30:54.067Z,0.8
2022-09-23T06:35:58.442Z,0.7
2022-09-23T06:40:55.401Z,1.1
2022-09-23T06:44:44.652Z,1.1
2022-09-23T06:45:56.175Z,0.8
2022-09-23T06:50:56.634Z,0.8
2022-09-23T06:55:57.354Z,0.7
2022-09-23T07:00:58.039Z,0.4
2022-09-23T07:05:58.768Z,0.6
2022-09-23T07:10:59.341Z,0.6
2022-09-23T07:16:00.251Z,0.9
2022-09-23T07:21:00.676Z,0.6
2022-09-23T07:26:01.513Z,0.7
2022-09-23T07:31:02.320Z,1.0
2022-09-23T07:36:02.868Z,1.1
2022-09-23T07:41:03.472Z,1.0
2022-09-23T07:46:04.448Z,0.9
2022-09-23T07:51:04.862Z,1.0
2022-09-23T07:56:06.879Z,1.0
2022-09-23T08:01:06.496Z,1.1
2022-09-23T08:06:06.843Z,1.7
2022-09-23T08:11:07.538Z,1.3
2022-09-23T08:16:08.345Z,1.5
2022-09-23T08:21:08.953Z,1.6
2022-09-23T08:26:17.920Z,1.4
2022-09-23T08:31:10.686Z,1.4
2022-09-23T08:36:11.022Z,1.4
2022-09-23T08:41:11.703Z,1.5
2022-09-23T08:46:12.445Z,1.2
2022-09-23T08:51:13.187Z,1.5
2022-09-23T08:56:13.711Z,1.6
2022-09-23T09:01:14.582Z,1.6
2022-09-23T09:06:15.137Z,1.8
2022-09-23T09:11:15.846Z,1.4
2022-09-23T09:16:18.831Z,1.5
2022-09-23T09:21:17.053Z,1.4
2022-09-23T09:26:17.829Z,1.2
2022-09-23T09:31:19.395Z,1.4
2022-09-23T09:36:19.055Z,1.3
2022-09-23T09:41:28.193Z,1.2
2022-09-23T09:46:20.429Z,1.4
2022-09-23T09:51:21.015Z,1.5
2022-09-23T09:56:21.575Z,1.1
2022-09-23T10:01:22.988Z,1.5
2022-09-23T10:06:22.861Z,1.2
2022-09-23T10:11:23.570Z,1.6
2022-09-23T10:16:26.876Z,1.2
2022-09-23T10:21:27.713Z,1.3
2022-09-23T10:26:25.704Z,1.0
2022-09-23T10:31:26.671Z,1.5
2022-09-23T10:36:26.998Z,1.0
2022-09-23T10:41:28.220Z,1.4
2022-09-23T10:46:28.258Z,1.3
2022-09-23T10:51:28.879Z,1.1
2022-09-23T10:56:29.522Z,1.3
2022-09-23T11:01:30.289Z,1.0
2022-09-23T11:06:30.729Z,1.0
2022-09-23T11:11:31.467Z,0.9
2022-09-23T11:16:32.279Z,0.8
2022-09-23T11:21:33.316Z,1.0
2022-09-23T11:26:33.539Z,0.9
2022-09-23T11:31:35.904Z,0.7
2022-09-23T11:36:34.668Z,0.7
2022-09-23T11:41:35.241Z,0.8
2022-09-23T11:46:35.836Z,0.6
2022-09-23T11:51:36.651Z,0.6
2022-09-23T11:56:38.490Z,0.7
2022-09-23T12:01:39.060Z,0.7
2022-09-23T12:06:38.433Z,0.6
2022-09-23T12:11:39.255Z,0.5
2022-09-23T12:16:40.174Z,0.7
2022-09-23T12:21:50.319Z,0.4
2022-09-23T12:26:40.998Z,0.8
2022-09-23T12:31:44.103Z,0.7
2022-09-23T12:36:42.259Z,0.7
2022-09-23T12:41:43.083Z,1.1
2022-09-23T12:46:43.852Z,0.8
2022-09-23T12:51:44.492Z,0.8
2022-09-23T12:56:48.258Z,0.8
2022-09-23T13:01:47.581Z,0.8
2022-09-23T13:06:48.389Z,0.8
2022-09-23T13:11:47.077Z,0.6
2022-09-23T13:16:48.535Z,0.7
2022-09-23T13:21:48.535Z,0.6
2022-09-23T13:26:49.279Z,0.5
2022-09-23T13:31:50.024Z,0.7
2022-09-23T13:36:50.516Z,0.4
2022-09-23T13:41:51.286Z,0.6
2022-09-23T13:46:52.031Z,0.6
2022-09-23T13:51:53.219Z,0.4
2022-09-23T13:56:53.429Z,0.5
2022-09-23T14:01:54.077Z,0.5
2022-09-23T14:06:54.471Z,0.7
2022-09-23T14:11:55.535Z,0.6
2022-09-23T14:16:56.498Z,0.7
2022-09-23T14:21:56.509Z,1.2
2022-09-23T14:26:57.606Z,0.7
2022-09-23T14:31:58.353Z,0.6
2022-09-23T14:36:59.127Z,1.0
2022-09-23T14:42:00.981Z,0.6
2022-09-23T14:47:00.117Z,0.7
2022-09-23T14:52:00.887Z,0.8
2022-09-23T14:57:01.245Z,0.7
2022-09-23T15:02:02.656Z,0.7
2022-09-23T15:07:02.893Z,0.6
2022-09-23T15:12:03.344Z,1.0
2022-09-23T15:17:04.442Z,0.7
2022-09-23T15:22:05.436Z,0.4
2022-09-23T15:27:06.837Z,0.6
2022-09-23T15:32:07.713Z,0.7
2022-09-23T15:37:07.099Z,1.3
2022-09-23T15:42:07.544Z,0.6
2022-09-23T15:47:08.657Z,1.0
2022-09-23T15:52:08.929Z,0.6
2022-09-23T15:57:09.585Z,0.7
2022-09-23T16:02:10.490Z,0.6
2022-09-23T16:07:11.300Z,1.0
2022-09-23T16:12:11.726Z,1.2
2022-09-23T16:17:12.710Z,0.7
2022-09-23T16:22:13.265Z,0.7
2022-09-23T16:27:13.615Z,0.6
2022-09-23T16:32:17.829Z,0.8
2022-09-23T16:37:15.178Z,0.6
2022-09-23T16:42:16.059Z,0.8
2022-09-23T16:47:16.741Z,0.5
2022-09-23T16:52:17.289Z,0.7
2022-09-23T16:57:17.995Z,0.6
2022-09-23T17:02:19.138Z,0.7
2022-09-23T17:07:19.311Z,0.9
2022-09-23T17:12:20.033Z,0.7
2022-09-23T17:17:21.840Z,0.7
2022-09-23T17:22:21.365Z,0.8
2022-09-23T17:27:22.062Z,0.8
2022-09-23T17:32:23.968Z,0.9
2022-09-23T17:37:23.187Z,0.7
2022-09-23T17:42:23.946Z,0.6
2022-09-23T17:47:24.554Z,0.6
2022-09-23T17:52:25.265Z,0.5
2022-09-23T17:57:26.301Z,0.6
2022-09-23T18:02:29.276Z,0.7
2022-09-23T18:07:27.682Z,0.5
2022-09-23T18:12:28.099Z,0.6
2022-09-23T18:17:28.812Z,0.6
2022-09-23T18:22:29.418Z,1.1
2022-09-23T18:27:37.271Z,0.6
2022-09-23T18:32:30.816Z,0.5
2022-09-23T18:37:31.583Z,0.5
2022-09-23T18:42:32.196Z,1.0
2022-09-23T18:47:32.809Z,0.7
2022-09-23T18:52:33.288Z,0.7
2022-09-23T18:57:34.934Z,0.8
2022-09-23T19:02:34.787Z,0.8
2022-09-23T19:07:35.532Z,0.7
2022-09-23T19:12:36.151Z,0.5
2022-09-23T19:17:36.934Z,0.5
2022-09-23T19:22:37.450Z,0.4
2022-09-23T19:27:38.038Z,0.7
2022-09-23T19:32:38.683Z,0.6
2022-09-23T19:37:39.176Z,0.6
2022-09-23T19:42:40.050Z,0.4
2022-09-23T19:47:40.724Z,0.5
2022-09-23T19:52:41.145Z,0.4
2022-09-23T19:57:41.794Z,0.6
2022-09-23T20:02:42.687Z,0.8
2022-09-23T20:07:43.253Z,0.6
2022-09-23T20:12:43.742Z,0.5
2022-09-23T20:17:44.684Z,0.3
2022-09-23T20:22:45.161Z,0.5
2022-09-23T20:27:45.924Z,0.4
2022-09-23T20:32:46.535Z,0.3
2022-09-23T20:37:47.240Z,0.4
2022-09-23T20:42:47.856Z,0.5
2022-09-23T20:47:48.432Z,0.6
2022-09-23T20:52:49.179Z,0.4
2022-09-23T20:57:49.788Z,0.4
2022-09-23T21:02:50.672Z,0.6
2022-09-23T21:07:51.193Z,0.4
2022-09-23T21:12:51.899Z,0.6
2022-09-23T21:17:52.655Z,0.3
2022-09-23T21:22:53.224Z,0.4
2022-09-23T21:27:53.821Z,0.5
2022-09-23T21:32:54.777Z,0.5
2022-09-23T21:37:54.926Z,0.2
2022-09-23T21:42:55.683Z,0.4
2022-09-23T21:47:56.668Z,0.5
2022-09-23T21:52:56.832Z,0.4
2022-09-23T21:57:57.451Z,0.4
2022-09-23T22:02:58.252Z,0.4
2022-09-23T22:07:59.588Z,0.5
2022-09-23T22:12:59.350Z,0.3
2022-09-23T22:18:00.059Z,0.3
2022-09-23T22:23:01.701Z,0.3
2022-09-23T22:28:01.005Z,0.5
2022-09-23T22:33:01.881Z,0.6
2022-09-23T22:38:02.171Z,0.2
2022-09-23T22:43:02.771Z,0.3
2022-09-23T22:48:03.322Z,0.4
2022-09-23T22:53:03.960Z,0.3
2022-09-23T22:58:21.582Z,0.4
2022-09-23T23:03:05.081Z,0.3
2022-09-23T23:08:05.573Z,0.3
2022-09-23T23:13:06.164Z,0.4
2022-09-23T23:18:06.943Z,0.4
2022-09-23T23:23:07.452Z,0.3
2022-09-23T23:28:07.786Z,0.2
2022-09-23T23:33:08.519Z,0.3
2022-09-23T23:38:09.000Z,0.3
2022-09-23T23:43:09.814Z,0.3
2022-09-23T23:48:10.154Z,0.3
2022-09-23T23:53:10.688Z,0.4
2022-09-23T23:58:11.263Z,0.3
